createdAt,value
2019-02-01T00:00:21.214Z,995.70
2019-02-01T00:02:19.622Z,995.66
2019-02-01T00:03:25.124Z,995.68
2019-02-01T00:05:23.538Z,995.70
2019-02-01T00:06:29.033Z,995.70
2019-02-01T00:08:27.446Z,995.63
2019-02-01T00:09:32.958Z,995.64
2019-02-01T00:11:31.337Z,995.67
2019-02-01T00:12:36.857Z,995.58
2019-02-01T00:14:35.302Z,995.56
2019-02-01T00:15:40.769Z,995.59
2019-02-01T00:17:39.156Z,995.55
2019-02-01T00:18:44.682Z,995.60
2019-02-01T00:20:43.103Z,995.61
2019-02-01T00:21:48.585Z,995.60
2019-02-01T00:23:46.969Z,995.57
2019-02-01T00:24:52.493Z,995.56
2019-02-01T00:26:51.762Z,995.55
2019-02-01T00:27:57.260Z,995.51
2019-02-01T00:29:55.651Z,995.51
2019-02-01T00:31:01.161Z,995.54
2019-02-01T00:32:59.588Z,995.49
2019-02-01T00:34:05.080Z,995.51
2019-02-01T00:36:03.471Z,995.52
2019-02-01T00:37:08.988Z,995.49
2019-02-01T00:39:07.395Z,995.49
2019-02-01T00:40:12.902Z,995.45
2019-02-01T00:42:11.295Z,995.45
2019-02-01T00:43:16.813Z,995.46
2019-02-01T00:45:15.227Z,995.41
2019-02-01T00:46:20.725Z,995.40
2019-02-01T00:48:19.113Z,995.35
2019-02-01T00:49:24.638Z,995.33
2019-02-01T00:51:23.041Z,995.31
2019-02-01T00:52:28.546Z,995.24
2019-02-01T00:54:26.936Z,995.23
2019-02-01T00:55:32.469Z,995.26
2019-02-01T00:57:30.860Z,995.28
2019-02-01T00:58:36.368Z,995.20
2019-02-01T01:00:34.772Z,995.22
2019-02-01T01:01:40.298Z,995.22
2019-02-01T01:03:38.687Z,995.22
2019-02-01T01:04:44.199Z,995.21
2019-02-01T01:06:42.603Z,995.16
2019-02-01T01:07:50.055Z,995.12
2019-02-01T01:09:46.497Z,995.14
2019-02-01T01:10:52.021Z,995.11
2019-02-01T01:12:50.427Z,995.11
2019-02-01T01:13:55.931Z,995.04
2019-02-01T01:15:54.339Z,995.04
2019-02-01T01:16:59.838Z,994.98
2019-02-01T01:18:58.239Z,994.96
2019-02-01T01:20:03.755Z,994.97
2019-02-01T01:22:02.160Z,994.93
2019-02-01T01:23:07.662Z,994.92
2019-02-01T01:25:06.053Z,994.92
2019-02-01T01:26:11.577Z,994.93
2019-02-01T01:28:09.973Z,994.90
2019-02-01T01:29:15.479Z,994.87
2019-02-01T01:31:13.892Z,994.84
2019-02-01T01:32:19.388Z,994.91
2019-02-01T01:34:17.788Z,994.91
2019-02-01T01:35:23.298Z,994.90
2019-02-01T01:37:21.711Z,994.84
2019-02-01T01:38:27.223Z,994.84
2019-02-01T01:40:25.623Z,994.90
2019-02-01T01:41:31.132Z,994.87
2019-02-01T01:43:29.537Z,994.84
2019-02-01T01:44:35.041Z,994.83
2019-02-01T01:46:33.445Z,994.86
2019-02-01T01:47:38.954Z,994.89
2019-02-01T01:49:37.344Z,994.87
2019-02-01T01:50:42.874Z,994.84
2019-02-01T01:52:41.268Z,994.87
2019-02-01T01:53:46.777Z,994.86
2019-02-01T01:55:45.159Z,994.85
2019-02-01T01:56:50.685Z,994.80
2019-02-01T01:58:49.087Z,994.78
2019-02-01T01:59:54.597Z,994.74
2019-02-01T02:01:52.994Z,994.66
2019-02-01T02:02:58.503Z,994.66
2019-02-01T02:04:56.889Z,994.64
2019-02-01T02:06:02.411Z,994.65
2019-02-01T02:08:00.808Z,994.65
2019-02-01T02:09:06.319Z,994.63
2019-02-01T02:11:04.702Z,994.56
2019-02-01T02:12:10.224Z,994.55
2019-02-01T02:14:08.638Z,994.60
2019-02-01T02:15:14.134Z,994.58
2019-02-01T02:17:12.533Z,994.58
2019-02-01T02:18:18.039Z,994.61
2019-02-01T02:20:16.424Z,994.59
2019-02-01T02:21:21.945Z,994.58
2019-02-01T02:23:20.348Z,994.54
2019-02-01T02:24:25.860Z,994.57
2019-02-01T02:26:24.236Z,994.57
2019-02-01T02:27:29.759Z,994.53
2019-02-01T02:29:28.386Z,994.56
2019-02-01T02:30:33.898Z,994.57
2019-02-01T02:32:32.302Z,994.60
2019-02-01T02:33:37.805Z,994.58
2019-02-01T02:35:36.186Z,994.58
2019-02-01T02:36:41.716Z,994.58
2019-02-01T02:38:40.108Z,994.59
2019-02-01T02:39:45.620Z,994.57
2019-02-01T02:41:44.007Z,994.58
2019-02-01T02:42:49.589Z,994.53
2019-02-01T02:44:47.926Z,994.50
2019-02-01T02:45:53.435Z,994.43
2019-02-01T02:47:51.840Z,994.37
2019-02-01T02:49:00.237Z,994.31
2019-02-01T02:50:56.580Z,994.38
2019-02-01T02:52:02.103Z,994.35
2019-02-01T02:54:00.505Z,994.44
2019-02-01T02:55:06.014Z,994.44
2019-02-01T02:57:04.406Z,994.46
2019-02-01T02:58:09.921Z,994.49
2019-02-01T03:00:08.302Z,994.51
2019-02-01T03:01:13.842Z,994.50
2019-02-01T03:03:12.230Z,994.51
2019-02-01T03:04:17.741Z,994.46
2019-02-01T03:06:16.146Z,994.47
2019-02-01T03:07:21.641Z,994.42
2019-02-01T03:09:20.044Z,994.33
2019-02-01T03:10:25.549Z,994.31
2019-02-01T03:12:23.952Z,994.29
2019-02-01T03:13:29.458Z,994.32
2019-02-01T03:15:27.853Z,994.24
2019-02-01T03:16:33.365Z,994.30
2019-02-01T03:18:31.767Z,994.29
2019-02-01T03:19:37.275Z,994.31
2019-02-01T03:21:36.513Z,994.26
2019-02-01T03:22:42.094Z,994.28
2019-02-01T03:24:40.436Z,994.21
2019-02-01T03:25:45.944Z,994.21
2019-02-01T03:27:44.350Z,994.21
2019-02-01T03:28:49.853Z,994.23
2019-02-01T03:30:48.234Z,994.21
2019-02-01T03:31:54.012Z,994.18
2019-02-01T03:33:52.153Z,994.25
2019-02-01T03:34:58.223Z,994.18
2019-02-01T03:36:56.049Z,994.14
2019-02-01T03:38:01.576Z,994.18
2019-02-01T03:39:59.979Z,994.16
2019-02-01T03:41:05.485Z,994.10
2019-02-01T03:43:03.883Z,994.04
2019-02-01T03:44:09.389Z,994.03
2019-02-01T03:46:07.781Z,993.94
2019-02-01T03:47:13.300Z,993.99
2019-02-01T03:49:11.704Z,993.94
2019-02-01T03:50:17.219Z,993.96
2019-02-01T03:52:16.454Z,993.89
2019-02-01T03:53:21.969Z,993.92
2019-02-01T03:55:20.369Z,993.92
2019-02-01T03:56:25.875Z,993.86
2019-02-01T03:58:24.273Z,993.87
2019-02-01T03:59:29.785Z,993.85
2019-02-01T04:01:28.169Z,993.85
2019-02-01T04:02:33.692Z,993.86
2019-02-01T04:04:32.089Z,993.80
2019-02-01T04:05:37.601Z,993.81
2019-02-01T04:07:35.992Z,993.79
2019-02-01T04:08:41.504Z,993.81
2019-02-01T04:10:39.905Z,993.76
2019-02-01T04:11:45.412Z,993.70
2019-02-01T04:13:43.807Z,993.67
2019-02-01T04:14:49.320Z,993.70
2019-02-01T04:16:47.701Z,993.66
2019-02-01T04:17:53.229Z,993.66
2019-02-01T04:19:51.641Z,993.72
2019-02-01T04:20:57.138Z,993.75
2019-02-01T04:22:55.539Z,993.75
2019-02-01T04:24:01.043Z,993.78
2019-02-01T04:25:59.425Z,993.80
2019-02-01T04:27:04.952Z,993.75
2019-02-01T04:29:03.352Z,993.72
2019-02-01T04:30:08.859Z,993.64
2019-02-01T04:32:07.283Z,993.64
2019-02-01T04:33:12.771Z,993.65
2019-02-01T04:35:11.170Z,993.63
2019-02-01T04:36:16.683Z,993.60
2019-02-01T04:38:15.083Z,993.53
2019-02-01T04:39:20.586Z,993.56
2019-02-01T04:41:19.201Z,993.54
2019-02-01T04:42:24.732Z,993.61
2019-02-01T04:44:23.122Z,993.61
2019-02-01T04:45:28.633Z,993.61
2019-02-01T04:47:27.017Z,993.55
2019-02-01T04:48:32.562Z,993.50
2019-02-01T04:50:30.938Z,993.57
2019-02-01T04:51:36.450Z,993.59
2019-02-01T04:53:34.845Z,993.57
2019-02-01T04:54:40.835Z,993.61
2019-02-01T04:56:38.743Z,993.61
2019-02-01T04:57:44.267Z,993.57
2019-02-01T04:59:42.662Z,993.55
2019-02-01T05:00:48.173Z,993.59
2019-02-01T05:02:46.563Z,993.53
2019-02-01T05:03:52.086Z,993.58
2019-02-01T05:05:50.477Z,993.50
2019-02-01T05:06:55.985Z,993.47
2019-02-01T05:08:56.546Z,993.52
2019-02-01T05:09:59.926Z,993.51
2019-02-01T05:11:58.370Z,993.48
2019-02-01T05:13:03.803Z,993.43
2019-02-01T05:15:02.208Z,993.41
2019-02-01T05:16:07.713Z,993.41
2019-02-01T05:18:06.098Z,993.43
2019-02-01T05:19:11.616Z,993.38
2019-02-01T05:21:10.016Z,993.41
2019-02-01T05:22:15.529Z,993.31
2019-02-01T05:24:13.921Z,993.30
2019-02-01T05:25:19.439Z,993.25
2019-02-01T05:27:17.822Z,993.25
2019-02-01T05:28:23.339Z,993.25
2019-02-01T05:30:21.756Z,993.17
2019-02-01T05:31:27.250Z,993.15
2019-02-01T05:33:25.636Z,993.12
2019-02-01T05:34:31.157Z,993.09
2019-02-01T05:36:29.558Z,993.09
2019-02-01T05:37:35.063Z,993.04
2019-02-01T05:39:33.453Z,993.04
2019-02-01T05:40:38.968Z,993.02
2019-02-01T05:42:37.355Z,992.98
2019-02-01T05:43:42.876Z,992.91
2019-02-01T05:45:41.283Z,992.92
2019-02-01T05:46:46.788Z,992.88
2019-02-01T05:48:45.179Z,992.87
2019-02-01T05:49:50.703Z,992.83
2019-02-01T05:51:49.095Z,992.77
2019-02-01T05:52:54.611Z,992.77
2019-02-01T05:54:53.001Z,992.71
2019-02-01T05:55:58.512Z,992.68
2019-02-01T05:57:56.898Z,992.74
2019-02-01T05:59:02.419Z,992.70
2019-02-01T06:01:00.813Z,992.70
2019-02-01T06:02:06.321Z,992.73
2019-02-01T06:04:04.719Z,992.75
2019-02-01T06:05:10.230Z,992.79
2019-02-01T06:07:08.617Z,992.74
2019-02-01T06:08:14.140Z,992.80
2019-02-01T06:10:12.536Z,992.78
2019-02-01T06:11:18.063Z,992.73
2019-02-01T06:13:16.421Z,992.78
2019-02-01T06:14:21.946Z,992.77
2019-02-01T06:16:20.345Z,992.80
2019-02-01T06:17:25.855Z,992.83
2019-02-01T06:19:24.248Z,992.83
2019-02-01T06:20:39.761Z,992.84
2019-02-01T06:22:28.192Z,992.73
2019-02-01T06:23:33.672Z,992.73
2019-02-01T06:25:32.071Z,992.69
2019-02-01T06:26:37.576Z,992.77
2019-02-01T06:28:35.964Z,992.74
2019-02-01T06:29:41.587Z,992.77
2019-02-01T06:31:39.882Z,992.73
2019-02-01T06:32:45.392Z,992.77
2019-02-01T06:34:43.787Z,992.65
2019-02-01T06:35:49.296Z,992.63
2019-02-01T06:37:47.682Z,992.58
2019-02-01T06:38:53.201Z,992.58
2019-02-01T06:40:51.601Z,992.58
2019-02-01T06:41:57.107Z,992.61
2019-02-01T06:43:55.490Z,992.58
2019-02-01T06:45:01.013Z,992.61
2019-02-01T06:46:59.424Z,992.60
2019-02-01T06:48:04.921Z,992.63
2019-02-01T06:50:03.315Z,992.62
2019-02-01T06:51:08.822Z,992.63
2019-02-01T06:53:07.231Z,992.63
2019-02-01T06:54:12.744Z,992.64
2019-02-01T06:56:11.133Z,992.73
2019-02-01T06:57:16.647Z,992.75
2019-02-01T06:59:15.120Z,992.76
2019-02-01T07:00:20.559Z,992.77
2019-02-01T07:02:18.955Z,992.73
2019-02-01T07:03:24.473Z,992.80
2019-02-01T07:05:22.863Z,992.73
2019-02-01T07:06:28.377Z,992.71
2019-02-01T07:08:26.752Z,992.76
2019-02-01T07:09:32.277Z,992.77
2019-02-01T07:11:30.669Z,992.71
2019-02-01T07:12:36.181Z,992.70
2019-02-01T07:14:34.567Z,992.68
2019-02-01T07:15:40.090Z,992.73
2019-02-01T07:17:38.620Z,992.71
2019-02-01T07:18:44.003Z,992.76
2019-02-01T07:20:42.410Z,992.74
2019-02-01T07:21:47.903Z,992.77
2019-02-01T07:23:46.291Z,992.77
2019-02-01T07:24:51.815Z,992.81
2019-02-01T07:26:50.210Z,992.77
2019-02-01T07:27:55.718Z,992.65
2019-02-01T07:29:54.111Z,992.65
2019-02-01T07:30:59.625Z,992.60
2019-02-01T07:32:58.050Z,992.62
2019-02-01T07:34:03.556Z,992.61
2019-02-01T07:36:01.941Z,992.68
2019-02-01T07:37:07.464Z,992.62
2019-02-01T07:39:05.859Z,992.61
2019-02-01T07:40:11.375Z,992.61
2019-02-01T07:42:09.769Z,992.56
2019-02-01T07:43:15.281Z,992.56
2019-02-01T07:45:13.663Z,992.51
2019-02-01T07:46:19.190Z,992.47
2019-02-01T07:48:17.590Z,992.46
2019-02-01T07:49:23.098Z,992.46
2019-02-01T07:51:21.480Z,992.45
2019-02-01T07:52:27.002Z,992.43
2019-02-01T07:54:25.403Z,992.47
2019-02-01T07:55:30.918Z,992.45
2019-02-01T07:57:29.317Z,992.46
2019-02-01T07:58:34.819Z,992.41
2019-02-01T08:00:33.207Z,992.47
2019-02-01T08:01:38.729Z,992.39
2019-02-01T08:03:38.652Z,992.38
2019-02-01T08:04:42.637Z,992.43
2019-02-01T08:06:41.605Z,992.32
2019-02-01T08:07:46.550Z,992.38
2019-02-01T08:09:44.941Z,992.39
2019-02-01T08:10:50.453Z,992.32
2019-02-01T08:12:48.850Z,992.38
2019-02-01T08:13:54.360Z,992.37
2019-02-01T08:15:52.877Z,992.35
2019-02-01T08:16:58.279Z,992.39
2019-02-01T08:18:56.663Z,992.32
2019-02-01T08:20:02.175Z,992.36
2019-02-01T08:22:00.560Z,992.28
2019-02-01T08:23:06.079Z,992.27
2019-02-01T08:25:04.486Z,992.28
2019-02-01T08:26:09.998Z,992.27
2019-02-01T08:28:08.384Z,992.28
2019-02-01T08:29:13.904Z,992.30
2019-02-01T08:31:12.283Z,992.30
2019-02-01T08:32:17.808Z,992.31
2019-02-01T08:34:16.205Z,992.31
2019-02-01T08:35:21.707Z,992.26
2019-02-01T08:37:20.097Z,992.35
2019-02-01T08:38:25.620Z,992.35
2019-02-01T08:40:24.047Z,992.29
2019-02-01T08:41:29.553Z,992.26
2019-02-01T08:43:27.953Z,992.30
2019-02-01T08:44:33.461Z,992.35
2019-02-01T08:46:31.848Z,992.36
2019-02-01T08:47:37.373Z,992.46
2019-02-01T08:49:35.781Z,992.43
2019-02-01T08:50:41.281Z,992.44
2019-02-01T08:52:39.665Z,992.46
2019-02-01T08:53:45.187Z,992.49
2019-02-01T08:57:15.152Z,992.50
2019-02-01T08:58:20.652Z,992.56
2019-02-01T09:00:28.314Z,992.54
2019-02-01T09:01:24.563Z,992.61
2019-02-01T09:03:22.958Z,992.61
2019-02-01T09:04:28.467Z,992.62
2019-02-01T09:06:26.848Z,992.73
2019-02-01T09:07:32.380Z,992.77
2019-02-01T09:09:30.772Z,992.83
2019-02-01T09:10:36.283Z,992.76
2019-02-01T09:12:34.668Z,992.89
2019-02-01T09:13:40.189Z,992.84
2019-02-01T09:15:38.597Z,992.86
2019-02-01T09:16:44.102Z,992.89
2019-02-01T09:18:42.498Z,992.82
2019-02-01T09:19:48.012Z,992.82
2019-02-01T09:21:50.479Z,992.86
2019-02-01T09:22:51.919Z,992.84
2019-02-01T09:24:50.317Z,992.75
2019-02-01T09:25:55.834Z,992.70
2019-02-01T09:27:54.303Z,992.72
2019-02-01T09:28:59.735Z,992.69
2019-02-01T09:30:58.979Z,992.60
2019-02-01T09:32:04.493Z,992.53
2019-02-01T09:34:02.902Z,992.57
2019-02-01T09:35:08.405Z,992.56
2019-02-01T09:37:06.796Z,992.57
2019-02-01T09:38:12.318Z,992.60
2019-02-01T09:40:10.714Z,992.56
2019-02-01T09:41:16.225Z,992.56
2019-02-01T09:43:14.608Z,992.58
2019-02-01T09:44:20.138Z,992.53
2019-02-01T09:46:19.379Z,992.51
2019-02-01T09:47:24.892Z,992.52
2019-02-01T09:49:23.290Z,992.39
2019-02-01T09:50:28.806Z,992.41
2019-02-01T09:52:27.189Z,992.40
2019-02-01T09:53:32.716Z,992.42
2019-02-01T09:55:31.112Z,992.40
2019-02-01T09:56:36.624Z,992.39
2019-02-01T09:58:35.033Z,992.45
2019-02-01T09:59:40.536Z,992.42
2019-02-01T10:01:38.917Z,992.48
2019-02-01T10:02:44.449Z,992.47
2019-02-01T10:04:42.837Z,992.37
2019-02-01T10:05:48.356Z,992.39
2019-02-01T10:07:46.737Z,992.36
2019-02-01T10:08:52.263Z,992.31
2019-02-01T10:10:50.658Z,992.24
2019-02-01T10:11:56.168Z,992.19
2019-02-01T10:13:54.575Z,992.19
2019-02-01T10:15:00.342Z,992.21
2019-02-01T10:16:58.460Z,992.23
2019-02-01T10:18:03.989Z,992.23
2019-02-01T10:20:02.978Z,992.29
2019-02-01T10:21:07.924Z,992.28
2019-02-01T10:23:06.279Z,992.34
2019-02-01T10:24:11.805Z,992.33
2019-02-01T10:26:10.205Z,992.35
2019-02-01T10:27:15.717Z,992.27
2019-02-01T10:29:14.112Z,992.29
2019-02-01T10:30:19.629Z,992.31
2019-02-01T10:32:18.023Z,992.30
2019-02-01T10:33:23.538Z,992.24
2019-02-01T10:35:21.935Z,992.18
2019-02-01T10:36:27.450Z,992.22
2019-02-01T10:38:25.831Z,992.25
2019-02-01T10:39:31.359Z,992.22
2019-02-01T10:41:29.759Z,992.23
2019-02-01T10:42:35.270Z,992.17
2019-02-01T10:44:33.666Z,992.18
2019-02-01T10:45:39.178Z,992.22
2019-02-01T10:47:37.561Z,992.16
2019-02-01T10:48:43.090Z,992.13
2019-02-01T10:50:41.487Z,992.03
2019-02-01T10:51:46.996Z,992.05
2019-02-01T10:53:45.626Z,992.04
2019-02-01T10:54:50.911Z,992.07
2019-02-01T10:56:49.310Z,992.03
2019-02-01T10:57:54.823Z,991.98
2019-02-01T10:59:53.222Z,991.98
2019-02-01T11:00:58.736Z,991.95
2019-02-01T11:02:57.119Z,991.90
2019-02-01T11:04:02.646Z,991.90
2019-02-01T11:06:01.049Z,991.94
2019-02-01T11:07:06.553Z,991.89
2019-02-01T11:09:04.941Z,991.91
2019-02-01T11:10:10.554Z,991.87
2019-02-01T11:12:14.173Z,991.80
2019-02-01T11:13:14.376Z,991.88
2019-02-01T11:15:12.770Z,991.89
2019-02-01T11:16:26.709Z,991.83
2019-02-01T11:18:16.674Z,991.88
2019-02-01T11:19:22.201Z,991.88
2019-02-01T11:21:20.596Z,991.87
2019-02-01T11:22:36.321Z,991.92
2019-02-01T11:24:24.511Z,991.96
2019-02-01T11:25:30.028Z,992.02
2019-02-01T11:27:28.427Z,992.04
2019-02-01T11:28:33.940Z,992.00
2019-02-01T11:30:32.332Z,991.98
2019-02-01T11:31:37.858Z,991.94
2019-02-01T11:33:36.236Z,991.97
2019-02-01T11:34:41.763Z,991.96
2019-02-01T11:36:40.165Z,992.00
2019-02-01T11:37:45.675Z,991.98
2019-02-01T11:39:44.142Z,991.94
2019-02-01T11:40:49.587Z,991.95
2019-02-01T11:42:47.978Z,991.95
2019-02-01T11:43:53.497Z,991.95
2019-02-01T11:45:51.897Z,991.97
2019-02-01T11:46:57.409Z,991.95
2019-02-01T11:48:55.799Z,991.85
2019-02-01T11:50:03.045Z,991.90
2019-02-01T11:51:59.730Z,991.84
2019-02-01T11:53:05.235Z,991.77
2019-02-01T11:55:03.640Z,991.76
2019-02-01T11:56:09.149Z,991.77
2019-02-01T11:58:07.539Z,991.70
2019-02-01T11:59:13.064Z,991.71
2019-02-01T12:01:11.462Z,991.69
2019-02-01T12:02:16.974Z,991.60
2019-02-01T12:04:15.365Z,991.69
2019-02-01T12:05:20.888Z,991.71
2019-02-01T12:07:19.292Z,991.76
2019-02-01T12:08:24.799Z,991.71
2019-02-01T12:10:23.239Z,991.76
2019-02-01T12:11:28.716Z,991.83
2019-02-01T12:13:27.105Z,991.81
2019-02-01T12:14:34.726Z,991.83
2019-02-01T12:16:31.034Z,991.81
2019-02-01T12:17:36.546Z,991.77
2019-02-01T12:19:34.935Z,991.76
2019-02-01T12:20:40.478Z,991.78
2019-02-01T12:22:38.861Z,991.89
2019-02-01T12:23:44.373Z,991.83
2019-02-01T12:25:42.784Z,991.81
2019-02-01T12:26:48.289Z,991.82
2019-02-01T12:28:46.673Z,991.81
2019-02-01T12:29:52.199Z,991.80
2019-02-01T12:31:50.601Z,991.80
2019-02-01T12:32:56.113Z,991.85
2019-02-01T12:34:54.504Z,991.76
2019-02-01T12:36:00.034Z,991.71
2019-02-01T12:37:58.433Z,991.73
2019-02-01T12:39:03.943Z,991.75
2019-02-01T12:41:02.344Z,991.77
2019-02-01T12:42:07.862Z,991.75
2019-02-01T12:44:06.282Z,991.71
2019-02-01T12:45:11.803Z,991.66
2019-02-01T12:47:10.207Z,991.71
2019-02-01T12:48:15.718Z,991.66
2019-02-01T12:50:14.103Z,991.69
2019-02-01T12:51:19.630Z,991.72
2019-02-01T12:53:18.032Z,991.65
2019-02-01T12:54:23.544Z,991.68
2019-02-01T12:56:21.950Z,991.69
2019-02-01T12:57:28.008Z,991.66
2019-02-01T12:59:25.843Z,991.70
2019-02-01T13:00:31.372Z,991.71
2019-02-01T13:02:29.772Z,991.65
2019-02-01T13:03:35.283Z,991.63
2019-02-01T13:05:33.671Z,991.66
2019-02-01T13:06:39.197Z,991.67
2019-02-01T13:08:37.589Z,991.65
2019-02-01T13:09:43.110Z,991.66
2019-02-01T13:11:41.507Z,991.64
2019-02-01T13:12:47.021Z,991.66
2019-02-01T13:14:45.399Z,991.60
2019-02-01T13:15:50.924Z,991.65
2019-02-01T13:17:49.324Z,991.60
2019-02-01T13:18:54.837Z,991.59
2019-02-01T13:20:53.814Z,991.63
2019-02-01T13:21:58.862Z,991.58
2019-02-01T13:23:57.268Z,991.60
2019-02-01T13:25:02.774Z,991.57
2019-02-01T13:27:01.173Z,991.58
2019-02-01T13:28:06.687Z,991.59
2019-02-01T13:30:05.071Z,991.61
2019-02-01T13:31:11.400Z,991.61
2019-02-01T13:33:09.004Z,991.62
2019-02-01T13:34:14.522Z,991.63
2019-02-01T13:36:12.901Z,991.66
2019-02-01T13:37:18.427Z,991.65
2019-02-01T13:39:16.838Z,991.69
2019-02-01T13:40:22.335Z,991.68
2019-02-01T13:42:20.740Z,991.68
2019-02-01T13:43:26.246Z,991.63
2019-02-01T13:45:24.635Z,991.67
2019-02-01T13:46:30.154Z,991.68
2019-02-01T13:48:28.652Z,991.60
2019-02-01T13:49:34.071Z,991.56
2019-02-01T13:51:32.480Z,991.56
2019-02-01T13:52:38.003Z,991.57
2019-02-01T13:54:36.417Z,991.61
2019-02-01T13:55:41.904Z,991.59
2019-02-01T13:57:40.306Z,991.59
2019-02-01T13:58:45.817Z,991.61
2019-02-01T14:00:44.202Z,991.63
2019-02-01T14:01:49.726Z,991.61
2019-02-01T14:03:48.127Z,991.65
2019-02-01T14:04:53.641Z,991.63
2019-02-01T14:06:52.046Z,991.59
2019-02-01T14:08:02.054Z,991.60
2019-02-01T14:10:05.990Z,991.60
2019-02-01T14:11:01.464Z,991.54
2019-02-01T14:12:59.866Z,991.52
2019-02-01T14:14:12.153Z,991.49
2019-02-01T14:16:04.610Z,991.52
2019-02-01T14:17:10.850Z,991.49
2019-02-01T14:19:08.533Z,991.46
2019-02-01T14:20:14.046Z,991.52
2019-02-01T14:22:12.447Z,991.45
2019-02-01T14:23:17.956Z,991.46
2019-02-01T14:25:16.388Z,991.45
2019-02-01T14:26:22.657Z,991.46
2019-02-01T14:28:20.286Z,991.47
2019-02-01T14:29:25.925Z,991.48
2019-02-01T14:31:24.183Z,991.42
2019-02-01T14:32:29.712Z,991.46
2019-02-01T14:34:28.113Z,991.47
2019-02-01T14:35:33.630Z,991.48
2019-02-01T14:37:32.025Z,991.55
2019-02-01T14:38:37.536Z,991.52
2019-02-01T14:40:35.929Z,991.52
2019-02-01T14:41:41.473Z,991.54
2019-02-01T14:43:39.846Z,991.59
2019-02-01T14:44:45.358Z,991.54
2019-02-01T14:46:43.739Z,991.62
2019-02-01T14:47:49.268Z,991.62
2019-02-01T14:49:47.665Z,991.64
2019-02-01T14:50:53.271Z,991.68
2019-02-01T14:52:51.622Z,991.72
2019-02-01T14:53:58.814Z,991.66
2019-02-01T14:55:55.481Z,991.65
2019-02-01T14:57:01.006Z,991.62
2019-02-01T14:58:59.399Z,991.64
2019-02-01T15:00:04.916Z,991.65
2019-02-01T15:02:03.302Z,991.63
2019-02-01T15:03:08.830Z,991.63
2019-02-01T15:05:07.232Z,991.63
2019-02-01T15:06:12.750Z,991.63
2019-02-01T15:08:11.142Z,991.57
2019-02-01T15:09:16.663Z,991.61
2019-02-01T15:11:15.045Z,991.60
2019-02-01T15:12:20.568Z,991.61
2019-02-01T15:14:18.977Z,991.59
2019-02-01T15:15:24.479Z,991.56
2019-02-01T15:17:22.880Z,991.54
2019-02-01T15:18:28.389Z,991.56
2019-02-01T15:20:26.780Z,991.64
2019-02-01T15:21:32.307Z,991.67
2019-02-01T15:23:30.702Z,991.76
2019-02-01T15:24:36.218Z,991.75
2019-02-01T15:26:34.598Z,991.78
2019-02-01T15:27:40.128Z,991.80
2019-02-01T15:29:38.543Z,991.88
2019-02-01T15:30:44.043Z,991.88
2019-02-01T15:32:42.446Z,991.99
2019-02-01T15:33:47.964Z,992.05
2019-02-01T15:35:46.345Z,992.13
2019-02-01T15:36:51.866Z,992.16
2019-02-01T15:38:50.272Z,992.14
2019-02-01T15:39:55.778Z,992.17
2019-02-01T15:41:54.158Z,992.06
2019-02-01T15:42:59.688Z,992.01
2019-02-01T15:44:58.087Z,991.95
2019-02-01T15:46:03.599Z,991.97
2019-02-01T15:48:01.998Z,992.00
2019-02-01T15:49:07.516Z,991.99
2019-02-01T15:51:06.128Z,992.01
2019-02-01T15:52:11.653Z,992.01
2019-02-01T15:54:21.367Z,991.91
2019-02-01T15:55:19.363Z,991.89
2019-02-01T15:57:14.799Z,991.91
2019-02-01T15:58:20.326Z,991.93
2019-02-01T16:00:18.728Z,991.96
2019-02-01T16:01:24.239Z,992.00
2019-02-01T16:03:22.637Z,992.01
2019-02-01T16:04:28.147Z,992.05
2019-02-01T16:06:26.536Z,992.04
2019-02-01T16:07:32.058Z,992.08
2019-02-01T16:09:30.461Z,992.09
2019-02-01T16:10:36.449Z,992.13
2019-02-01T16:12:34.360Z,992.09
2019-02-01T16:13:39.888Z,992.07
2019-02-01T16:15:38.287Z,991.96
2019-02-01T16:16:43.805Z,991.88
2019-02-01T16:18:42.201Z,991.75
2019-02-01T16:19:47.711Z,991.74
2019-02-01T16:21:46.237Z,991.71
2019-02-01T16:22:51.701Z,991.74
2019-02-01T16:24:50.030Z,991.77
2019-02-01T16:25:55.542Z,991.81
2019-02-01T16:27:53.924Z,991.84
2019-02-01T16:28:59.451Z,991.85
2019-02-01T16:30:57.843Z,991.91
2019-02-01T16:32:03.360Z,991.95
2019-02-01T16:34:01.757Z,991.96
2019-02-01T16:35:07.335Z,992.00
2019-02-01T16:37:05.658Z,992.04
2019-02-01T16:38:11.188Z,992.06
2019-02-01T16:40:09.586Z,992.01
2019-02-01T16:41:15.102Z,992.09
2019-02-01T16:43:13.483Z,992.07
2019-02-01T16:44:19.014Z,992.11
2019-02-01T16:46:17.410Z,992.11
2019-02-01T16:47:22.928Z,992.16
2019-02-01T16:49:21.324Z,992.18
2019-02-01T16:50:26.835Z,992.18
2019-02-01T16:52:25.221Z,992.26
2019-02-01T16:53:30.747Z,992.26
2019-02-01T16:55:29.150Z,992.29
2019-02-01T16:56:34.661Z,992.29
2019-02-01T16:58:33.131Z,992.29
2019-02-01T16:59:40.835Z,992.30
2019-02-01T17:01:36.964Z,992.31
2019-02-01T17:02:42.489Z,992.30
2019-02-01T17:04:40.887Z,992.30
2019-02-01T17:05:46.399Z,992.34
2019-02-01T17:07:44.793Z,992.25
2019-02-01T17:08:50.313Z,992.24
2019-02-01T17:10:48.947Z,992.19
2019-02-01T17:11:54.462Z,992.23
2019-02-01T17:13:52.861Z,992.20
2019-02-01T17:14:58.373Z,992.26
2019-02-01T17:16:56.761Z,992.11
2019-02-01T17:18:02.286Z,992.13
2019-02-01T17:20:00.686Z,992.14
2019-02-01T17:21:06.201Z,992.15
2019-02-01T17:23:04.589Z,992.20
2019-02-01T17:24:10.663Z,992.21
2019-02-01T17:26:08.515Z,992.19
2019-02-01T17:27:14.029Z,992.22
2019-02-01T17:29:13.051Z,992.22
2019-02-01T17:30:17.934Z,992.18
2019-02-01T17:32:16.318Z,992.16
2019-02-01T17:33:21.847Z,992.17
2019-02-01T17:35:20.251Z,992.19
2019-02-01T17:36:25.761Z,992.22
2019-02-01T17:38:24.147Z,992.18
2019-02-01T17:39:29.670Z,992.20
2019-02-01T17:41:28.075Z,992.23
2019-02-01T17:42:33.584Z,992.20
2019-02-01T17:44:31.985Z,992.24
2019-02-01T17:45:37.499Z,992.23
2019-02-01T17:47:35.880Z,992.21
2019-02-01T17:48:41.410Z,992.21
2019-02-01T17:50:39.811Z,992.18
2019-02-01T17:51:51.012Z,992.21
2019-02-01T17:53:43.709Z,992.17
2019-02-01T17:54:49.234Z,992.19
2019-02-01T17:56:47.633Z,992.19
2019-02-01T17:57:53.149Z,992.18
2019-02-01T17:59:51.562Z,992.15
2019-02-01T18:00:57.061Z,992.19
2019-02-01T18:02:55.449Z,992.17
2019-02-01T18:04:00.971Z,992.17
2019-02-01T18:05:59.372Z,992.19
2019-02-01T18:07:04.880Z,992.22
2019-02-01T18:09:03.269Z,992.28
2019-02-01T18:10:08.795Z,992.24
2019-02-01T18:12:07.199Z,992.25
2019-02-01T18:13:12.707Z,992.23
2019-02-01T18:15:11.108Z,992.20
2019-02-01T18:16:16.621Z,992.23
2019-02-01T18:18:15.009Z,992.23
2019-02-01T18:19:20.530Z,992.20
2019-02-01T18:21:18.942Z,992.20
2019-02-01T18:22:24.442Z,992.19
2019-02-01T18:24:22.832Z,992.23
2019-02-01T18:25:28.360Z,992.19
2019-02-01T18:27:26.761Z,992.12
2019-02-01T18:28:32.267Z,992.12
2019-02-01T18:30:30.672Z,992.05
2019-02-01T18:31:36.184Z,992.08
2019-02-01T18:33:34.572Z,992.08
2019-02-01T18:34:40.100Z,992.06
2019-02-01T18:36:38.496Z,992.01
2019-02-01T18:37:44.010Z,992.06
2019-02-01T18:39:42.405Z,992.07
2019-02-01T18:40:47.922Z,992.05
2019-02-01T18:42:46.312Z,992.11
2019-02-01T18:43:51.836Z,992.13
2019-02-01T18:45:50.240Z,992.13
2019-02-01T18:46:55.754Z,992.13
2019-02-01T18:48:54.135Z,992.17
2019-02-01T18:49:59.660Z,992.17
2019-02-01T18:51:58.060Z,992.18
2019-02-01T18:53:03.581Z,992.19
2019-02-01T18:55:02.827Z,992.16
2019-02-01T18:56:08.342Z,992.16
2019-02-01T18:58:06.724Z,992.20
2019-02-01T18:59:12.253Z,992.22
2019-02-01T19:01:10.653Z,992.22
2019-02-01T19:02:16.163Z,992.25
2019-02-01T19:04:14.551Z,992.27
2019-02-01T19:05:20.077Z,992.28
2019-02-01T19:07:18.479Z,992.31
2019-02-01T19:08:23.988Z,992.32